createdAt,value
2018-10-07T00:02:17.753Z,2.50
2018-10-07T00:04:47.216Z,2.53
2018-10-07T00:07:19.268Z,2.37
2018-10-07T00:09:49.843Z,2.22
2018-10-07T00:12:18.479Z,2.92
2018-10-07T00:14:50.430Z,2.28
2018-10-07T00:17:22.278Z,2.50
2018-10-07T00:19:52.508Z,2.33
2018-10-07T00:22:24.379Z,2.45
2018-10-07T00:24:56.158Z,2.55
2018-10-07T00:27:28.009Z,2.25
2018-10-07T00:29:56.663Z,1.50
2018-10-07T00:32:26.904Z,2.05
2018-10-07T00:34:57.183Z,2.92
2018-10-07T00:37:28.998Z,2.12
2018-10-07T00:39:58.389Z,2.40
2018-10-07T00:42:30.214Z,1.73
2018-10-07T00:44:59.038Z,2.28
2018-10-07T00:47:29.500Z,1.23
2018-10-07T00:49:59.638Z,1.55
2018-10-07T00:52:29.260Z,1.37
2018-10-07T00:54:59.417Z,1.58
2018-10-07T00:57:29.732Z,1.27
2018-10-07T01:00:00.017Z,1.75
2018-10-07T01:02:31.711Z,1.80
2018-10-07T01:05:02.041Z,1.75
2018-10-07T01:07:32.468Z,1.58
2018-10-07T01:10:04.050Z,1.80
2018-10-07T01:12:34.387Z,1.62
2018-10-07T01:15:05.011Z,1.80
2018-10-07T01:17:35.492Z,0.95
2018-10-07T01:20:06.488Z,1.15
2018-10-07T01:22:36.760Z,1.45
2018-10-07T01:25:08.904Z,0.65
2018-10-07T01:27:39.053Z,1.23
2018-10-07T01:30:09.501Z,0.90
2018-10-07T01:32:41.388Z,1.35
2018-10-07T01:35:13.209Z,1.42
2018-10-07T01:37:43.480Z,0.98
2018-10-07T01:40:14.025Z,1.27
2018-10-07T01:42:44.340Z,1.58
2018-10-07T01:45:16.014Z,2.00
2018-10-07T01:47:47.331Z,2.00
2018-10-07T01:50:18.612Z,1.33
2018-10-07T01:52:50.607Z,1.37
2018-10-07T01:55:19.564Z,1.75
2018-10-07T01:57:51.776Z,1.62
2018-10-07T02:00:21.828Z,1.15
2018-10-07T02:02:51.480Z,1.90
2018-10-07T02:05:21.975Z,1.42
2018-10-07T02:07:52.225Z,1.50
2018-10-07T02:10:23.837Z,0.57
2018-10-07T02:12:54.169Z,1.08
2018-10-07T02:15:24.480Z,0.95
2018-10-07T02:17:55.205Z,0.82
2018-10-07T02:20:27.317Z,1.15
2018-10-07T02:22:57.796Z,1.58
2018-10-07T02:25:28.218Z,1.27
2018-10-07T02:27:56.821Z,0.60
2018-10-07T02:30:28.937Z,0.73
2018-10-07T02:32:59.223Z,1.00
2018-10-07T02:35:31.368Z,1.10
2018-10-07T02:38:01.677Z,0.90
2018-10-07T02:40:31.942Z,1.10
2018-10-07T02:43:03.664Z,0.95
2018-10-07T02:45:35.219Z,0.70
2018-10-07T02:48:05.562Z,0.62
2018-10-07T02:50:37.097Z,0.70
2018-10-07T02:53:05.871Z,1.12
2018-10-07T02:55:36.005Z,1.25
2018-10-07T02:58:08.246Z,0.62
2018-10-07T03:00:41.277Z,0.93
2018-10-07T03:03:12.952Z,0.82
2018-10-07T03:05:41.729Z,0.98
2018-10-07T03:08:12.121Z,0.90
2018-10-07T03:10:43.859Z,1.27
2018-10-07T03:13:15.863Z,0.65
2018-10-07T03:15:46.210Z,0.77
2018-10-07T03:18:16.311Z,0.80
2018-10-07T03:20:46.449Z,1.37
2018-10-07T03:23:16.512Z,0.40
2018-10-07T03:25:46.171Z,1.15
2018-10-07T03:28:17.996Z,0.88
2018-10-07T03:30:48.297Z,1.10
2018-10-07T03:33:17.046Z,0.75
2018-10-07T03:35:48.927Z,0.80
2018-10-07T03:38:19.023Z,1.30
2018-10-07T03:40:49.942Z,0.98
2018-10-07T03:43:20.357Z,0.93
2018-10-07T03:45:52.121Z,0.60
2018-10-07T03:48:21.847Z,1.02
2018-10-07T03:50:52.593Z,0.80
2018-10-07T03:53:23.022Z,1.17
2018-10-07T03:55:51.899Z,0.82
2018-10-07T03:58:22.953Z,0.73
2018-10-07T04:00:53.281Z,0.80
2018-10-07T04:03:25.220Z,0.95
2018-10-07T04:05:56.394Z,1.17
2018-10-07T04:08:27.871Z,1.08
2018-10-07T04:10:58.013Z,0.88
2018-10-07T04:13:28.447Z,1.23
2018-10-07T04:15:58.527Z,1.00
2018-10-07T04:18:28.943Z,1.00
2018-10-07T04:20:59.043Z,0.68
2018-10-07T04:23:29.104Z,0.45
2018-10-07T04:25:59.222Z,0.60
2018-10-07T04:28:27.832Z,0.85
2018-10-07T04:30:59.548Z,0.98
2018-10-07T04:33:29.753Z,0.90
2018-10-07T04:35:58.317Z,1.10
2018-10-07T04:38:28.455Z,0.88
2018-10-07T04:40:58.587Z,1.42
2018-10-07T04:43:30.246Z,0.65
2018-10-07T04:46:00.285Z,0.95
2018-10-07T04:48:32.107Z,0.60
2018-10-07T04:51:02.357Z,0.95
2018-10-07T04:53:32.541Z,1.15
2018-10-07T04:56:02.784Z,1.08
2018-10-07T04:58:34.651Z,1.00
2018-10-07T05:01:04.945Z,1.25
2018-10-07T05:03:35.346Z,0.93
2018-10-07T05:06:07.046Z,1.10
2018-10-07T05:08:36.396Z,0.88
2018-10-07T05:11:06.262Z,1.20
2018-10-07T05:13:51.085Z,1.42
2018-10-07T05:16:40.375Z,0.73
2018-10-07T05:19:12.160Z,0.75
2018-10-07T05:21:43.914Z,0.47
2018-10-07T05:24:15.370Z,0.90
2018-10-07T05:26:46.403Z,1.10
2018-10-07T05:29:16.885Z,0.85
2018-10-07T05:31:48.557Z,1.12
2018-10-07T05:34:17.227Z,1.02
2018-10-07T05:36:47.383Z,0.80
2018-10-07T05:39:17.571Z,1.02
2018-10-07T05:41:46.227Z,1.27
2018-10-07T05:44:16.693Z,1.02
2018-10-07T05:46:45.280Z,0.68
2018-10-07T05:49:16.998Z,1.35
2018-10-07T05:51:47.232Z,1.73
2018-10-07T05:54:18.999Z,1.20
2018-10-07T05:56:49.092Z,0.93
2018-10-07T05:59:19.310Z,1.40
2018-10-07T06:01:48.096Z,1.67
2018-10-07T06:04:34.462Z,1.50
2018-10-07T06:07:06.740Z,1.05
2018-10-07T06:09:40.698Z,1.08
2018-10-07T06:12:11.034Z,1.17
2018-10-07T06:14:57.708Z,1.40
2018-10-07T06:17:27.804Z,1.20
2018-10-07T06:19:57.996Z,1.20
2018-10-07T06:22:27.344Z,1.08
2018-10-07T06:24:57.463Z,1.12
2018-10-07T06:27:28.926Z,1.25
2018-10-07T06:29:59.215Z,1.70
2018-10-07T06:32:29.494Z,1.30
2018-10-07T06:34:58.077Z,1.83
2018-10-07T06:37:29.590Z,1.48
2018-10-07T06:39:59.948Z,1.02
2018-10-07T06:42:31.484Z,1.52
2018-10-07T06:45:01.633Z,1.17
2018-10-07T06:47:33.379Z,0.90
2018-10-07T06:50:02.072Z,1.25
2018-10-07T06:52:33.858Z,1.17
2018-10-07T06:55:03.956Z,1.05
2018-10-07T06:57:34.051Z,1.00
2018-10-07T07:00:05.698Z,1.37
2018-10-07T07:02:35.950Z,1.70
2018-10-07T07:05:04.618Z,1.05
2018-10-07T07:07:34.981Z,1.70
2018-10-07T07:10:06.791Z,1.20
2018-10-07T07:12:37.350Z,1.35
2018-10-07T07:15:07.682Z,1.45
2018-10-07T07:17:38.595Z,1.77
2018-10-07T07:20:08.632Z,1.42
2018-10-07T07:22:39.579Z,1.20
2018-10-07T07:25:11.421Z,1.60
2018-10-07T07:27:41.746Z,1.20
2018-10-07T07:30:12.000Z,1.40
2018-10-07T07:32:43.812Z,1.33
2018-10-07T07:35:13.926Z,1.50
2018-10-07T07:37:44.070Z,1.10
2018-10-07T07:40:15.658Z,1.10
2018-10-07T07:42:44.298Z,1.50
2018-10-07T07:45:12.909Z,1.30
2018-10-07T07:47:41.592Z,2.00
2018-10-07T07:50:11.690Z,1.17
2018-10-07T07:52:41.803Z,1.15
2018-10-07T07:55:13.415Z,1.50
2018-10-07T07:57:44.973Z,1.75
2018-10-07T08:00:16.824Z,1.75
2018-10-07T08:02:45.353Z,1.23
2018-10-07T08:05:16.940Z,1.40
2018-10-07T08:07:44.670Z,1.20
2018-10-07T08:10:14.776Z,1.20
2018-10-07T08:12:44.794Z,2.05
2018-10-07T08:15:15.119Z,1.27
2018-10-07T08:17:45.363Z,1.40
2018-10-07T08:20:17.116Z,1.35
2018-10-07T08:22:45.710Z,1.05
2018-10-07T08:25:15.810Z,1.50
2018-10-07T08:27:47.486Z,1.30
2018-10-07T08:30:17.712Z,1.73
2018-10-07T08:32:47.822Z,1.30
2018-10-07T08:35:18.058Z,1.27
2018-10-07T08:37:49.779Z,1.73
2018-10-07T08:40:20.839Z,1.20
2018-10-07T08:42:49.230Z,1.92
2018-10-07T08:45:21.145Z,1.37
2018-10-07T08:47:52.719Z,1.05
2018-10-07T08:50:23.049Z,1.10
2018-10-07T08:52:53.404Z,1.30
2018-10-07T08:55:23.613Z,1.10
2018-10-07T08:57:55.408Z,1.20
2018-10-07T09:00:25.579Z,1.05
2018-10-07T09:02:53.409Z,1.00
2018-10-07T09:05:23.452Z,1.35
2018-10-07T09:07:55.296Z,1.20
2018-10-07T09:10:25.442Z,0.93
2018-10-07T09:12:55.597Z,1.20
2018-10-07T09:15:27.246Z,1.20
2018-10-07T09:17:58.920Z,1.20
2018-10-07T09:20:30.380Z,1.52
2018-10-07T09:23:00.475Z,1.65
2018-10-07T09:25:29.111Z,1.27
2018-10-07T09:28:01.221Z,1.40
2018-10-07T09:30:31.947Z,1.35
2018-10-07T09:33:03.652Z,1.17
2018-10-07T09:35:35.179Z,1.70
2018-10-07T09:38:04.039Z,1.10
2018-10-07T09:40:32.587Z,0.60
2018-10-07T09:43:01.816Z,1.30
2018-10-07T09:45:33.484Z,1.00
2018-10-07T09:48:03.555Z,1.30
2018-10-07T09:50:33.607Z,1.33
2018-10-07T09:53:02.184Z,1.25
2018-10-07T09:55:32.349Z,1.60
2018-10-07T09:58:04.321Z,1.35
2018-10-07T10:00:44.570Z,1.20
2018-10-07T10:03:14.716Z,1.30
2018-10-07T10:05:43.342Z,1.00
2018-10-07T10:08:13.526Z,0.77
2018-10-07T10:10:42.029Z,1.23
2018-10-07T10:13:10.624Z,1.00
2018-10-07T10:15:40.954Z,1.10
2018-10-07T10:18:13.978Z,1.12
2018-10-07T10:20:49.167Z,1.27
2018-10-07T10:23:49.393Z,0.68
2018-10-07T10:26:21.320Z,0.60
2018-10-07T10:28:59.622Z,0.88
2018-10-07T10:31:33.369Z,1.00
2018-10-07T10:34:09.695Z,0.80
2018-10-07T10:36:59.166Z,0.95
2018-10-07T10:39:48.654Z,1.20
2018-10-07T10:42:24.672Z,0.90
2018-10-07T10:44:59.475Z,0.90
2018-10-07T10:47:39.446Z,0.80
2018-10-07T10:50:21.945Z,0.93
2018-10-07T10:53:11.817Z,1.40
2018-10-07T10:56:13.388Z,0.88
2018-10-07T10:58:48.996Z,1.15
2018-10-07T11:01:27.370Z,0.95
2018-10-07T11:04:09.781Z,1.30
2018-10-07T11:06:51.644Z,1.23
2018-10-07T11:09:40.364Z,0.95
2018-10-07T11:12:12.223Z,1.10
2018-10-07T11:14:59.303Z,1.25
2018-10-07T11:17:39.273Z,0.95
2018-10-07T11:20:27.955Z,0.90
2018-10-07T11:23:04.449Z,1.00
2018-10-07T11:25:53.520Z,0.80
2018-10-07T11:28:26.358Z,0.70
2018-10-07T11:31:17.300Z,0.73
2018-10-07T11:34:16.057Z,0.62
2018-10-07T11:37:17.666Z,0.62
2018-10-07T11:39:53.730Z,0.93
2018-10-07T11:42:30.105Z,0.75
2018-10-07T11:45:09.427Z,0.80
2018-10-07T11:47:50.394Z,0.43
2018-10-07T11:50:38.703Z,0.73
2018-10-07T11:53:19.205Z,0.80
2018-10-07T11:55:49.465Z,0.62
2018-10-07T11:58:19.115Z,0.93
2018-10-07T12:00:49.205Z,0.62
2018-10-07T12:03:19.427Z,0.50
2018-10-07T12:05:49.540Z,0.98
2018-10-07T12:08:19.604Z,0.68
2018-10-07T12:10:49.624Z,0.95
2018-10-07T12:13:21.257Z,0.93
2018-10-07T12:15:52.993Z,0.65
2018-10-07T12:18:25.511Z,0.77
2018-10-07T12:20:55.624Z,0.70
2018-10-07T12:23:27.178Z,1.10
2018-10-07T12:25:55.723Z,0.82
2018-10-07T12:28:25.877Z,0.70
2018-10-07T12:30:55.431Z,0.62
2018-10-07T12:33:27.149Z,1.10
2018-10-07T12:35:55.704Z,0.82
2018-10-07T12:38:26.420Z,0.90
2018-10-07T12:40:56.547Z,0.80
2018-10-07T12:43:26.588Z,0.98
2018-10-07T12:45:57.621Z,0.70
2018-10-07T12:48:29.253Z,1.05
2018-10-07T12:50:57.930Z,0.82
2018-10-07T12:53:29.518Z,0.57
2018-10-07T12:55:58.682Z,0.77
2018-10-07T12:58:30.353Z,1.02
2018-10-07T13:01:01.294Z,0.65
2018-10-07T13:03:31.309Z,0.80
2018-10-07T13:06:01.421Z,1.02
2018-10-07T13:08:31.549Z,1.08
2018-10-07T13:11:01.650Z,1.12
2018-10-07T13:13:31.723Z,1.00
2018-10-07T13:16:03.470Z,1.20
2018-10-07T13:18:32.037Z,1.10
2018-10-07T13:21:02.354Z,1.17
2018-10-07T13:23:32.466Z,0.77
2018-10-07T13:26:03.983Z,1.00
2018-10-07T13:28:35.482Z,0.88
2018-10-07T13:31:06.628Z,0.85
2018-10-07T13:33:36.860Z,1.17
2018-10-07T13:36:06.185Z,0.88
2018-10-07T13:38:37.843Z,1.00
2018-10-07T13:41:09.300Z,1.02
2018-10-07T13:43:37.919Z,1.12
2018-10-07T13:46:09.541Z,0.73
2018-10-07T13:48:39.408Z,0.85
2018-10-07T13:51:10.977Z,0.85
2018-10-07T13:53:41.466Z,1.17
2018-10-07T13:56:10.799Z,0.75
2018-10-07T13:58:39.363Z,1.00
2018-10-07T14:01:07.932Z,1.75
2018-10-07T14:03:38.211Z,1.40
2018-10-07T14:06:09.826Z,1.90
2018-10-07T14:08:41.392Z,1.10
2018-10-07T14:11:11.668Z,1.10
2018-10-07T14:13:41.683Z,1.02
2018-10-07T14:16:10.290Z,1.27
2018-10-07T14:18:38.861Z,1.10
2018-10-07T14:21:10.449Z,0.70
2018-10-07T14:23:40.648Z,0.88
2018-10-07T14:26:11.542Z,0.93
2018-10-07T14:28:43.332Z,1.20
2018-10-07T14:31:11.923Z,0.95
2018-10-07T14:33:42.213Z,0.70
2018-10-07T14:36:12.558Z,0.70
2018-10-07T14:38:44.333Z,0.70
2018-10-07T14:41:12.909Z,0.90
2018-10-07T14:43:43.010Z,0.82
2018-10-07T14:46:11.633Z,0.98
2018-10-07T14:48:40.842Z,0.90
2018-10-07T14:51:09.430Z,0.88
2018-10-07T14:53:39.527Z,1.10
2018-10-07T14:56:09.958Z,1.00
2018-10-07T14:58:41.826Z,1.10
2018-10-07T15:01:12.032Z,1.05
2018-10-07T15:03:43.592Z,0.75
2018-10-07T15:06:15.323Z,0.85
2018-10-07T15:08:46.864Z,1.37
2018-10-07T15:11:18.403Z,0.75
2018-10-07T15:13:48.564Z,0.75
2018-10-07T15:16:18.665Z,0.88
2018-10-07T15:18:48.670Z,0.55
2018-10-07T15:21:19.021Z,1.00
2018-10-07T15:23:50.746Z,0.65
2018-10-07T15:26:22.231Z,1.00
2018-10-07T15:28:53.772Z,0.90
2018-10-07T15:31:24.033Z,0.85
2018-10-07T15:33:55.671Z,1.00
2018-10-07T15:36:24.982Z,1.20
2018-10-07T15:38:54.249Z,0.60
2018-10-07T15:41:24.278Z,0.95
2018-10-07T15:43:54.870Z,0.70
2018-10-07T15:46:26.761Z,1.12
2018-10-07T15:48:58.367Z,1.00
2018-10-07T15:51:26.992Z,0.90
2018-10-07T15:53:58.608Z,0.90
2018-10-07T15:56:28.701Z,0.88
2018-10-07T15:59:00.330Z,1.12
2018-10-07T16:01:30.398Z,0.70
2018-10-07T16:04:00.579Z,0.77
2018-10-07T16:06:29.241Z,1.15
2018-10-07T16:08:59.442Z,1.02
2018-10-07T16:11:31.016Z,0.93
2018-10-07T16:14:02.672Z,0.80
2018-10-07T16:16:34.305Z,0.80
2018-10-07T16:19:02.911Z,0.90
2018-10-07T16:21:31.629Z,0.73
2018-10-07T16:24:01.719Z,0.90
2018-10-07T16:26:30.464Z,1.00
2018-10-07T16:28:58.678Z,1.00
2018-10-07T16:31:28.725Z,0.73
2018-10-07T16:34:00.246Z,1.00
2018-10-07T16:36:28.827Z,0.85
2018-10-07T16:38:59.094Z,0.70
2018-10-07T16:41:30.783Z,0.95
2018-10-07T16:43:59.516Z,1.08
2018-10-07T16:46:29.850Z,1.00
2018-10-07T16:49:00.169Z,1.30
2018-10-07T16:51:30.559Z,0.95
2018-10-07T16:53:59.263Z,1.17
2018-10-07T16:56:27.953Z,1.42
2018-10-07T16:58:59.730Z,1.40
2018-10-07T17:01:28.450Z,1.10
2018-10-07T17:03:59.208Z,1.05
2018-10-07T17:06:29.381Z,0.90
2018-10-07T17:09:01.241Z,1.30
2018-10-07T17:11:31.472Z,1.60
2018-10-07T17:14:02.298Z,1.30
2018-10-07T17:16:31.656Z,1.60
2018-10-07T17:19:02.233Z,1.90
2018-10-07T17:21:33.832Z,1.65
2018-10-07T17:24:02.997Z,1.87
2018-10-07T17:26:31.932Z,1.52
2018-10-07T17:29:00.738Z,2.87
2018-10-07T17:31:30.806Z,1.65
2018-10-07T17:33:59.543Z,1.50
2018-10-07T17:36:31.409Z,1.33
2018-10-07T17:39:01.772Z,1.70
2018-10-07T17:41:32.060Z,1.60
2018-10-07T17:44:03.610Z,1.42
2018-10-07T17:46:33.778Z,1.70
2018-10-07T17:49:03.892Z,1.73
2018-10-07T17:51:33.935Z,2.08
2018-10-07T17:54:04.542Z,2.25
2018-10-07T17:56:36.532Z,2.58
2018-10-07T17:59:06.801Z,2.03
2018-10-07T18:01:36.982Z,2.20
2018-10-07T18:04:07.599Z,2.42
2018-10-07T18:06:37.691Z,2.55
2018-10-07T18:09:11.507Z,2.33
2018-10-07T18:11:41.884Z,3.05
2018-10-07T18:14:12.178Z,2.85
2018-10-07T18:16:40.808Z,2.40
2018-10-07T18:19:11.052Z,2.70
2018-10-07T18:21:41.102Z,1.77
2018-10-07T18:24:09.913Z,2.08
2018-10-07T18:26:40.211Z,2.53
2018-10-07T18:29:12.292Z,2.45
2018-10-07T18:31:40.878Z,1.77
2018-10-07T18:34:11.206Z,2.08
2018-10-07T18:36:43.273Z,1.95
2018-10-07T18:39:13.356Z,2.15
2018-10-07T18:41:45.008Z,2.03
2018-10-07T18:44:16.940Z,2.03
2018-10-07T18:46:47.041Z,2.05
2018-10-07T18:49:17.180Z,2.12
2018-10-07T18:51:47.551Z,2.17
2018-10-07T18:54:19.429Z,2.17
2018-10-07T18:56:51.126Z,2.40
2018-10-07T18:59:21.497Z,2.00
2018-10-07T19:01:51.625Z,2.28
2018-10-07T19:04:21.774Z,2.62
2018-10-07T19:06:52.164Z,2.70
2018-10-07T19:09:22.292Z,2.67
2018-10-07T19:11:53.232Z,3.10
2018-10-07T19:14:23.429Z,2.20
2018-10-07T19:16:54.927Z,2.33
2018-10-07T19:19:24.604Z,2.50
2018-10-07T19:21:54.734Z,2.47
2018-10-07T19:24:24.889Z,2.25
2018-10-07T19:26:54.980Z,2.35
2018-10-07T19:29:25.187Z,2.37
2018-10-07T19:31:55.510Z,2.70
2018-10-07T19:34:25.764Z,3.08
2018-10-07T19:36:55.873Z,2.83
2018-10-07T19:39:24.650Z,3.65
2018-10-07T19:41:54.893Z,3.15
2018-10-07T19:44:26.642Z,2.62
2018-10-07T19:46:58.207Z,2.37
2018-10-07T19:49:26.861Z,2.65
2018-10-07T19:51:57.002Z,3.28
2018-10-07T19:54:27.215Z,3.20
2018-10-07T19:56:56.393Z,3.42
2018-10-07T19:59:26.532Z,2.60
2018-10-07T20:01:57.437Z,3.00
2018-10-07T20:04:28.958Z,3.03
2018-10-07T20:06:58.613Z,3.22
2018-10-07T20:09:27.829Z,2.87
2018-10-07T20:11:55.885Z,3.30
2018-10-07T20:14:26.000Z,3.25
2018-10-07T20:16:56.239Z,3.67
2018-10-07T20:19:27.986Z,3.40
2018-10-07T20:21:57.082Z,3.25
2018-10-07T20:24:27.239Z,2.87
2018-10-07T20:26:57.357Z,3.92
2018-10-07T20:29:28.865Z,3.22
2018-10-07T20:31:59.193Z,2.80
2018-10-07T20:34:30.881Z,3.22
2018-10-07T20:37:02.423Z,3.35
2018-10-07T20:39:34.341Z,3.12
2018-10-07T20:42:02.975Z,2.87
2018-10-07T20:44:33.057Z,3.10
2018-10-07T20:47:03.209Z,3.10
2018-10-07T20:49:33.601Z,3.70
2018-10-07T20:52:03.838Z,2.83
2018-10-07T20:54:35.327Z,3.10
2018-10-07T20:57:05.298Z,3.20
2018-10-07T20:59:33.880Z,3.33
2018-10-07T21:02:04.116Z,3.10
2018-10-07T21:04:35.677Z,3.78
2018-10-07T21:07:05.985Z,4.00
2018-10-07T21:09:37.629Z,3.28
2018-10-07T21:12:06.828Z,3.40
2018-10-07T21:14:37.561Z,3.50
2018-10-07T21:17:07.731Z,3.72
2018-10-07T21:19:37.915Z,4.93
2018-10-07T21:22:08.073Z,3.85
2018-10-07T21:24:36.711Z,4.18
2018-10-07T21:27:06.837Z,3.20
2018-10-07T21:29:38.357Z,3.00
2018-10-07T21:32:06.961Z,3.28
2018-10-07T21:34:36.070Z,3.40
2018-10-07T21:37:07.319Z,3.47
2018-10-07T21:39:37.353Z,3.60
2018-10-07T21:42:07.354Z,3.78
2018-10-07T21:44:39.026Z,3.53
2018-10-07T21:47:09.421Z,3.15
2018-10-07T21:49:39.650Z,3.40
2018-10-07T21:52:07.968Z,3.20
2018-10-07T21:54:38.566Z,3.12
2018-10-07T21:57:08.890Z,3.62
2018-10-07T21:59:37.449Z,2.70
2018-10-07T22:02:07.631Z,3.15
2018-10-07T22:04:38.795Z,3.10
2018-10-07T22:07:09.637Z,3.17
2018-10-07T22:09:39.461Z,3.87
2018-10-07T22:12:11.074Z,3.20
2018-10-07T22:14:42.703Z,3.05
2018-10-07T22:17:14.266Z,4.32
2018-10-07T22:19:44.461Z,4.68
2018-10-07T22:22:14.522Z,4.00
2018-10-07T22:24:44.299Z,4.03
2018-10-07T22:27:14.489Z,4.80
2018-10-07T22:29:44.531Z,4.85
2018-10-07T22:32:16.269Z,2.80
2018-10-07T22:34:47.894Z,4.50
2018-10-07T22:37:19.497Z,6.43
2018-10-07T22:39:51.358Z,3.50
2018-10-07T22:42:19.926Z,2.83
2018-10-07T22:44:50.241Z,2.75
2018-10-07T22:47:20.498Z,3.53
2018-10-07T22:49:49.669Z,4.15
2018-10-07T22:52:20.844Z,3.45
2018-10-07T22:54:51.264Z,3.17
2018-10-07T22:57:21.147Z,2.80
2018-10-07T22:59:52.751Z,2.67
2018-10-07T23:02:22.966Z,3.35
2018-10-07T23:04:54.667Z,3.60
2018-10-07T23:07:24.953Z,3.53
2018-10-07T23:09:56.631Z,4.37
2018-10-07T23:12:26.888Z,3.10
2018-10-07T23:14:59.614Z,2.75
2018-10-07T23:17:30.007Z,2.53
2018-10-07T23:20:00.228Z,3.22
2018-10-07T23:22:30.419Z,3.22
2018-10-07T23:24:59.122Z,4.78
2018-10-07T23:27:29.260Z,3.45
2018-10-07T23:29:58.049Z,3.00
2018-10-07T23:32:30.137Z,2.70
2018-10-07T23:35:00.345Z,3.03
2018-10-07T23:37:30.572Z,3.20
2018-10-07T23:40:00.922Z,2.92
2018-10-07T23:42:31.377Z,2.58
2018-10-07T23:45:01.711Z,2.50
2018-10-07T23:47:33.304Z,2.10
2018-10-07T23:50:02.767Z,2.78
2018-10-07T23:52:34.578Z,2.70
2018-10-07T23:55:04.832Z,3.65
2018-10-07T23:57:35.047Z,3.20
